• Join FlightAware (Why Join?)
  • Login
  • US Flag 
 
05:09PM EST


 

Airport Tracker/Info


-or-


 

Live Flight TrackerFlight Track Log ✈ CTL21 ✈ 27-Jun-2013 ✈ KAZO - KBKL

Flight Track Log - Related Links

Times and Time Zones

All times are in EDT time to prevent confusion due to time zone crossing. See the CTL21 flight status page for this flight to view local times or setup timezone preferences in your user account.

Time Position Orientation Groundspeed Altitude Reporting Facility
EDT Latitude Longitude Course Direction KTS MPH feet Rate Location/Type
05:25PM 42.2936 -85.3958 89° East 156 180 3,600  Level Chicago Center
05:26PM 42.2814 -85.3372 106° East 169 194 4,000 120 Climbing Chicago Center
05:27PM 42.2439 -85.2794 131° Southeast 183 211 3,900 -180 Descending Chicago Center
05:28PM 42.0890 -85.2132 120° Southeast  Level FlightAware Approximate
05:28PM 42.2108 -85.2222 128° Southeast 190 219 3,700  Level Chicago Center
05:29PM 42.0667 -85.1558 117° Southeast  Level FlightAware Approximate
05:29PM 42.1767 -85.1631 128° Southeast 196 226 2,900  Level Chicago Center
05:30PM 42.1456 -85.1036 125° Southeast 197 227 2,900  Level Chicago Center
05:31PM 42.1156 -85.0492 127° Southeast 189 217 3,000  Climbing Chicago Center
05:32PM 42.0781 -84.9864 129° Southeast 183 211 3,000  Level Chicago Center
05:33PM 42.0483 -84.9325 127° Southeast 181 208 3,000  Level Chicago Center
05:34PM 42.0203 -84.8758 124° Southeast 181 208 3,000  Level Chicago Center
05:35PM 41.9917 -84.8203 125° Southeast 181 208 3,000 -60 Level Chicago Center
05:36PM 41.9614 -84.7653 127° Southeast 182 209 2,900 -60 Descending Chicago Center
05:37PM 41.9314 -84.7106 126° Southeast 182 209 2,900  Level Chicago Center
05:38PM 41.8953 -84.6447 126° Southeast 182 209 2,900  Level Chicago Center
05:39PM 41.8656 -84.5908 127° Southeast 181 208 3,000  Climbing Chicago Center
05:40PM 41.8350 -84.5378 128° Southeast 180 207 3,000  Level Chicago Center
05:41PM 41.8031 -84.4856 129° Southeast 180 207 3,000  Level Chicago Center
05:42PM 41.7719 -84.4300 127° Southeast 183 211 3,000  Level Chicago Center
05:43PM 41.7436 -84.3739 124° Southeast 183 211 3,000  Level Chicago Center
05:44PM 41.7089 -84.3078 125° Southeast 182 209 3,000 -60 Level Chicago Center
05:45PM 41.6781 -84.2539 127° Southeast 182 209 2,900  Descending Chicago Center
05:46PM 41.6458 -84.2025 130° Southeast 181 208 3,000 60 Climbing Chicago Center